sensor_id;sensor_type;location;lat;lon;timestamp;P1;durP1;ratioP1;P2;durP2;ratioP2
13571;SDS011;6857;53.484;10.216;2024-03-06T00:00:34;12.97;;;8.30;;
13571;SDS011;6857;53.484;10.216;2024-03-06T00:03:00;12.87;;;8.17;;
13571;SDS011;6857;53.484;10.216;2024-03-06T00:05:25;12.97;;;7.33;;
13571;SDS011;6857;53.484;10.216;2024-03-06T00:07:51;11.50;;;7.33;;
13571;SDS011;6857;53.484;10.216;2024-03-06T00:10:16;11.73;;;7.70;;
13571;SDS011;6857;53.484;10.216;2024-03-06T00:12:42;11.97;;;8.70;;
13571;SDS011;6857;53.484;10.216;2024-03-06T00:15:07;13.17;;;7.50;;
13571;SDS011;6857;53.484;10.216;2024-03-06T00:17:33;13.63;;;7.80;;
13571;SDS011;6857;53.484;10.216;2024-03-06T00:19:59;12.00;;;7.77;;
13571;SDS011;6857;53.484;10.216;2024-03-06T00:22:24;14.63;;;7.93;;
13571;SDS011;6857;53.484;10.216;2024-03-06T00:24:51;11.87;;;7.23;;
13571;SDS011;6857;53.484;10.216;2024-03-06T00:27:16;12.77;;;7.03;;
13571;SDS011;6857;53.484;10.216;2024-03-06T00:29:42;12.37;;;7.40;;
13571;SDS011;6857;53.484;10.216;2024-03-06T00:32:07;11.40;;;7.77;;
13571;SDS011;6857;53.484;10.216;2024-03-06T00:34:33;11.00;;;7.47;;
13571;SDS011;6857;53.484;10.216;2024-03-06T00:36:58;11.73;;;7.47;;
13571;SDS011;6857;53.484;10.216;2024-03-06T00:39:24;11.50;;;7.60;;
13571;SDS011;6857;53.484;10.216;2024-03-06T00:41:50;15.10;;;6.93;;
13571;SDS011;6857;53.484;10.216;2024-03-06T00:44:15;13.37;;;7.40;;
13571;SDS011;6857;53.484;10.216;2024-03-06T00:46:42;11.23;;;7.53;;
13571;SDS011;6857;53.484;10.216;2024-03-06T00:49:08;12.53;;;7.17;;
13571;SDS011;6857;53.484;10.216;2024-03-06T00:51:33;11.40;;;7.20;;
13571;SDS011;6857;53.484;10.216;2024-03-06T00:54:02;11.33;;;6.97;;
13571;SDS011;6857;53.484;10.216;2024-03-06T00:56:27;11.47;;;7.50;;
13571;SDS011;6857;53.484;10.216;2024-03-06T00:58:53;12.93;;;7.43;;
13571;SDS011;6857;53.484;10.216;2024-03-06T01:01:19;13.00;;;6.93;;
13571;SDS011;6857;53.484;10.216;2024-03-06T01:03:44;11.23;;;6.80;;
13571;SDS011;6857;53.484;10.216;2024-03-06T01:06:10;12.23;;;6.80;;
13571;SDS011;6857;53.484;10.216;2024-03-06T01:08:35;10.17;;;7.07;;
13571;SDS011;6857;53.484;10.216;2024-03-06T01:11:01;11.67;;;6.80;;
13571;SDS011;6857;53.484;10.216;2024-03-06T01:13:27;10.40;;;6.57;;
13571;SDS011;6857;53.484;10.216;2024-03-06T01:15:53;10.57;;;6.20;;
13571;SDS011;6857;53.484;10.216;2024-03-06T01:18:18;10.23;;;6.67;;
13571;SDS011;6857;53.484;10.216;2024-03-06T01:20:44;9.23;;;6.10;;
13571;SDS011;6857;53.484;10.216;2024-03-06T01:23:09;10.13;;;6.07;;
13571;SDS011;6857;53.484;10.216;2024-03-06T01:25:35;11.07;;;6.53;;
13571;SDS011;6857;53.484;10.216;2024-03-06T01:28:01;10.40;;;6.60;;
13571;SDS011;6857;53.484;10.216;2024-03-06T01:30:27;12.30;;;6.33;;
13571;SDS011;6857;53.484;10.216;2024-03-06T01:32:53;11.47;;;7.07;;
13571;SDS011;6857;53.484;10.216;2024-03-06T01:35:18;9.67;;;6.43;;
13571;SDS011;6857;53.484;10.216;2024-03-06T01:37:44;10.00;;;6.90;;
13571;SDS011;6857;53.484;10.216;2024-03-06T01:40:10;10.03;;;6.37;;
13571;SDS011;6857;53.484;10.216;2024-03-06T01:42:37;11.67;;;7.17;;
13571;SDS011;6857;53.484;10.216;2024-03-06T01:45:03;10.53;;;6.37;;
13571;SDS011;6857;53.484;10.216;2024-03-06T01:47:29;9.63;;;5.70;;
13571;SDS011;6857;53.484;10.216;2024-03-06T01:49:54;8.70;;;5.73;;
13571;SDS011;6857;53.484;10.216;2024-03-06T01:52:20;8.53;;;5.80;;
13571;SDS011;6857;53.484;10.216;2024-03-06T01:54:47;8.47;;;6.33;;
13571;SDS011;6857;53.484;10.216;2024-03-06T01:57:14;9.27;;;6.53;;
13571;SDS011;6857;53.484;10.216;2024-03-06T01:59:42;7.13;;;5.10;;
13571;SDS011;6857;53.484;10.216;2024-03-06T02:02:08;8.83;;;5.83;;
13571;SDS011;6857;53.484;10.216;2024-03-06T02:04:36;8.97;;;5.90;;
13571;SDS011;6857;53.484;10.216;2024-03-06T02:07:08;7.93;;;5.33;;
13571;SDS011;6857;53.484;10.216;2024-03-06T02:09:38;7.27;;;5.27;;
13571;SDS011;6857;53.484;10.216;2024-03-06T02:12:04;7.90;;;5.17;;
13571;SDS011;6857;53.484;10.216;2024-03-06T02:14:30;7.07;;;5.07;;
13571;SDS011;6857;53.484;10.216;2024-03-06T02:16:56;8.20;;;5.77;;
13571;SDS011;6857;53.484;10.216;2024-03-06T02:19:21;7.17;;;4.87;;
13571;SDS011;6857;53.484;10.216;2024-03-06T02:21:47;7.70;;;4.87;;
13571;SDS011;6857;53.484;10.216;2024-03-06T02:24:13;9.27;;;5.87;;
13571;SDS011;6857;53.484;10.216;2024-03-06T02:26:39;7.10;;;5.03;;
13571;SDS011;6857;53.484;10.216;2024-03-06T02:29:06;8.37;;;5.33;;
13571;SDS011;6857;53.484;10.216;2024-03-06T02:31:32;8.23;;;5.50;;
13571;SDS011;6857;53.484;10.216;2024-03-06T02:33:58;8.47;;;5.10;;
13571;SDS011;6857;53.484;10.216;2024-03-06T02:36:23;8.27;;;5.40;;
13571;SDS011;6857;53.484;10.216;2024-03-06T02:38:49;8.60;;;5.23;;
13571;SDS011;6857;53.484;10.216;2024-03-06T02:41:14;8.43;;;5.47;;
13571;SDS011;6857;53.484;10.216;2024-03-06T02:43:41;7.20;;;4.33;;
13571;SDS011;6857;53.484;10.216;2024-03-06T02:46:07;8.47;;;5.07;;
13571;SDS011;6857;53.484;10.216;2024-03-06T02:48:32;7.47;;;5.47;;
13571;SDS011;6857;53.484;10.216;2024-03-06T02:50:58;7.87;;;5.03;;
13571;SDS011;6857;53.484;10.216;2024-03-06T02:53:24;8.03;;;5.50;;
13571;SDS011;6857;53.484;10.216;2024-03-06T02:55:53;7.90;;;4.77;;
13571;SDS011;6857;53.484;10.216;2024-03-06T02:58:18;7.67;;;5.10;;
13571;SDS011;6857;53.484;10.216;2024-03-06T03:00:44;7.53;;;5.27;;
13571;SDS011;6857;53.484;10.216;2024-03-06T03:03:10;8.73;;;5.20;;
13571;SDS011;6857;53.484;10.216;2024-03-06T03:05:39;7.20;;;5.07;;
13571;SDS011;6857;53.484;10.216;2024-03-06T03:08:05;7.20;;;5.77;;
13571;SDS011;6857;53.484;10.216;2024-03-06T03:10:31;7.43;;;5.50;;
13571;SDS011;6857;53.484;10.216;2024-03-06T03:12:59;8.60;;;5.43;;
13571;SDS011;6857;53.484;10.216;2024-03-06T03:15:25;7.93;;;5.30;;
13571;SDS011;6857;53.484;10.216;2024-03-06T03:17:51;8.93;;;5.60;;
13571;SDS011;6857;53.484;10.216;2024-03-06T03:20:16;8.13;;;5.23;;
13571;SDS011;6857;53.484;10.216;2024-03-06T03:22:42;9.33;;;5.67;;
13571;SDS011;6857;53.484;10.216;2024-03-06T03:25:08;8.33;;;5.87;;
13571;SDS011;6857;53.484;10.216;2024-03-06T03:27:36;9.47;;;6.30;;
13571;SDS011;6857;53.484;10.216;2024-03-06T03:30:02;12.17;;;6.40;;
13571;SDS011;6857;53.484;10.216;2024-03-06T03:32:28;8.63;;;5.93;;
13571;SDS011;6857;53.484;10.216;2024-03-06T03:34:53;14.10;;;6.47;;
13571;SDS011;6857;53.484;10.216;2024-03-06T03:37:19;11.80;;;6.20;;
13571;SDS011;6857;53.484;10.216;2024-03-06T03:39:45;10.87;;;6.27;;
13571;SDS011;6857;53.484;10.216;2024-03-06T03:42:11;10.73;;;6.27;;
13571;SDS011;6857;53.484;10.216;2024-03-06T03:44:36;9.63;;;5.87;;
13571;SDS011;6857;53.484;10.216;2024-03-06T03:47:02;8.97;;;6.00;;
13571;SDS011;6857;53.484;10.216;2024-03-06T03:49:28;13.70;;;6.37;;
13571;SDS011;6857;53.484;10.216;2024-03-06T03:51:53;11.27;;;6.47;;
13571;SDS011;6857;53.484;10.216;2024-03-06T03:54:19;10.47;;;6.13;;
13571;SDS011;6857;53.484;10.216;2024-03-06T03:56:44;9.43;;;6.07;;
13571;SDS011;6857;53.484;10.216;2024-03-06T03:59:10;8.77;;;5.77;;
13571;SDS011;6857;53.484;10.216;2024-03-06T04:01:35;7.87;;;5.60;;
13571;SDS011;6857;53.484;10.216;2024-03-06T04:04:01;10.63;;;5.93;;
13571;SDS011;6857;53.484;10.216;2024-03-06T04:06:26;9.40;;;5.43;;
13571;SDS011;6857;53.484;10.216;2024-03-06T04:08:52;7.10;;;5.17;;
13571;SDS011;6857;53.484;10.216;2024-03-06T04:11:17;9.77;;;5.73;;
13571;SDS011;6857;53.484;10.216;2024-03-06T04:13:43;8.50;;;6.03;;
13571;SDS011;6857;53.484;10.216;2024-03-06T04:16:09;12.07;;;5.63;;
13571;SDS011;6857;53.484;10.216;2024-03-06T04:18:34;9.30;;;5.90;;
13571;SDS011;6857;53.484;10.216;2024-03-06T04:21:06;10.53;;;5.93;;
13571;SDS011;6857;53.484;10.216;2024-03-06T04:23:32;8.27;;;5.53;;
13571;SDS011;6857;53.484;10.216;2024-03-06T04:25:58;8.07;;;5.80;;
13571;SDS011;6857;53.484;10.216;2024-03-06T04:28:24;8.43;;;5.33;;
13571;SDS011;6857;53.484;10.216;2024-03-06T04:30:50;9.00;;;5.37;;
13571;SDS011;6857;53.484;10.216;2024-03-06T04:33:15;7.37;;;4.67;;
13571;SDS011;6857;53.484;10.216;2024-03-06T04:35:41;9.97;;;5.40;;
13571;SDS011;6857;53.484;10.216;2024-03-06T04:38:07;7.30;;;5.40;;
13571;SDS011;6857;53.484;10.216;2024-03-06T04:40:33;9.07;;;5.00;;
13571;SDS011;6857;53.484;10.216;2024-03-06T04:42:59;8.00;;;5.47;;
13571;SDS011;6857;53.484;10.216;2024-03-06T04:45:28;10.67;;;4.67;;
13571;SDS011;6857;53.484;10.216;2024-03-06T04:47:54;8.53;;;5.23;;
13571;SDS011;6857;53.484;10.216;2024-03-06T04:50:20;9.00;;;5.30;;
13571;SDS011;6857;53.484;10.216;2024-03-06T04:52:45;9.37;;;5.03;;
13571;SDS011;6857;53.484;10.216;2024-03-06T04:55:11;9.17;;;5.10;;
13571;SDS011;6857;53.484;10.216;2024-03-06T04:57:38;10.57;;;5.27;;
13571;SDS011;6857;53.484;10.216;2024-03-06T05:00:05;7.07;;;4.57;;
13571;SDS011;6857;53.484;10.216;2024-03-06T05:02:33;7.13;;;5.30;;
13571;SDS011;6857;53.484;10.216;2024-03-06T05:05:00;12.00;;;5.50;;
13571;SDS011;6857;53.484;10.216;2024-03-06T05:07:27;8.23;;;5.47;;
13571;SDS011;6857;53.484;10.216;2024-03-06T05:09:53;9.13;;;4.83;;
13571;SDS011;6857;53.484;10.216;2024-03-06T05:12:19;7.93;;;4.67;;
13571;SDS011;6857;53.484;10.216;2024-03-06T05:14:44;9.90;;;5.10;;
13571;SDS011;6857;53.484;10.216;2024-03-06T05:17:10;9.00;;;5.27;;
13571;SDS011;6857;53.484;10.216;2024-03-06T05:19:36;7.37;;;5.03;;
13571;SDS011;6857;53.484;10.216;2024-03-06T05:22:02;13.60;;;7.47;;
13571;SDS011;6857;53.484;10.216;2024-03-06T05:24:27;11.50;;;5.30;;
13571;SDS011;6857;53.484;10.216;2024-03-06T05:26:53;7.83;;;5.10;;
13571;SDS011;6857;53.484;10.216;2024-03-06T05:29:19;9.93;;;4.80;;
13571;SDS011;6857;53.484;10.216;2024-03-06T05:31:45;7.07;;;4.63;;
13571;SDS011;6857;53.484;10.216;2024-03-06T05:34:10;9.57;;;5.30;;
13571;SDS011;6857;53.484;10.216;2024-03-06T05:36:36;9.57;;;5.23;;
13571;SDS011;6857;53.484;10.216;2024-03-06T05:39:01;7.97;;;5.43;;
13571;SDS011;6857;53.484;10.216;2024-03-06T05:41:31;8.77;;;5.10;;
13571;SDS011;6857;53.484;10.216;2024-03-06T05:43:57;8.60;;;4.93;;
13571;SDS011;6857;53.484;10.216;2024-03-06T05:46:23;8.03;;;4.93;;
13571;SDS011;6857;53.484;10.216;2024-03-06T05:48:48;10.23;;;5.77;;
13571;SDS011;6857;53.484;10.216;2024-03-06T05:51:15;11.03;;;6.87;;
13571;SDS011;6857;53.484;10.216;2024-03-06T05:53:40;6.43;;;4.80;;
13571;SDS011;6857;53.484;10.216;2024-03-06T05:56:08;8.60;;;5.17;;
13571;SDS011;6857;53.484;10.216;2024-03-06T05:58:34;15.30;;;6.23;;
13571;SDS011;6857;53.484;10.216;2024-03-06T06:01:00;10.97;;;6.00;;
13571;SDS011;6857;53.484;10.216;2024-03-06T06:03:26;15.57;;;6.50;;
13571;SDS011;6857;53.484;10.216;2024-03-06T06:05:53;12.00;;;6.40;;
13571;SDS011;6857;53.484;10.216;2024-03-06T06:08:19;10.43;;;6.03;;
13571;SDS011;6857;53.484;10.216;2024-03-06T06:10:44;11.23;;;7.40;;
13571;SDS011;6857;53.484;10.216;2024-03-06T06:13:10;7.77;;;5.43;;
13571;SDS011;6857;53.484;10.216;2024-03-06T06:15:35;9.30;;;5.63;;
13571;SDS011;6857;53.484;10.216;2024-03-06T06:18:01;9.53;;;6.23;;
13571;SDS011;6857;53.484;10.216;2024-03-06T06:20:26;10.37;;;5.67;;
13571;SDS011;6857;53.484;10.216;2024-03-06T06:22:52;8.63;;;5.73;;
13571;SDS011;6857;53.484;10.216;2024-03-06T06:25:18;7.73;;;5.47;;
13571;SDS011;6857;53.484;10.216;2024-03-06T06:27:43;10.77;;;5.87;;
13571;SDS011;6857;53.484;10.216;2024-03-06T06:30:09;9.37;;;5.33;;
13571;SDS011;6857;53.484;10.216;2024-03-06T06:32:36;9.37;;;5.63;;
13571;SDS011;6857;53.484;10.216;2024-03-06T06:35:03;10.43;;;5.87;;
13571;SDS011;6857;53.484;10.216;2024-03-06T06:37:32;8.90;;;5.87;;
13571;SDS011;6857;53.484;10.216;2024-03-06T06:39:59;7.10;;;5.40;;
13571;SDS011;6857;53.484;10.216;2024-03-06T06:42:24;8.63;;;5.77;;
13571;SDS011;6857;53.484;10.216;2024-03-06T06:44:50;10.13;;;5.50;;
13571;SDS011;6857;53.484;10.216;2024-03-06T06:47:16;9.37;;;5.50;;
13571;SDS011;6857;53.484;10.216;2024-03-06T06:49:42;7.07;;;4.73;;
13571;SDS011;6857;53.484;10.216;2024-03-06T06:52:08;8.17;;;5.33;;
13571;SDS011;6857;53.484;10.216;2024-03-06T06:54:33;7.80;;;5.27;;
13571;SDS011;6857;53.484;10.216;2024-03-06T06:56:59;6.53;;;5.17;;
13571;SDS011;6857;53.484;10.216;2024-03-06T06:59:24;9.83;;;5.53;;
13571;SDS011;6857;53.484;10.216;2024-03-06T07:01:50;9.50;;;5.00;;
13571;SDS011;6857;53.484;10.216;2024-03-06T07:04:15;10.90;;;5.47;;
13571;SDS011;6857;53.484;10.216;2024-03-06T07:06:44;9.07;;;5.13;;
13571;SDS011;6857;53.484;10.216;2024-03-06T07:09:11;7.53;;;4.90;;
13571;SDS011;6857;53.484;10.216;2024-03-06T07:11:37;9.80;;;5.03;;
13571;SDS011;6857;53.484;10.216;2024-03-06T07:14:02;9.43;;;5.97;;
13571;SDS011;6857;53.484;10.216;2024-03-06T07:16:28;12.00;;;6.40;;
13571;SDS011;6857;53.484;10.216;2024-03-06T07:18:53;9.23;;;5.27;;
13571;SDS011;6857;53.484;10.216;2024-03-06T07:21:19;6.97;;;5.00;;
13571;SDS011;6857;53.484;10.216;2024-03-06T07:23:45;10.03;;;5.00;;
13571;SDS011;6857;53.484;10.216;2024-03-06T07:26:10;8.00;;;5.57;;
13571;SDS011;6857;53.484;10.216;2024-03-06T07:28:36;7.33;;;5.30;;
13571;SDS011;6857;53.484;10.216;2024-03-06T07:31:02;7.57;;;5.03;;
13571;SDS011;6857;53.484;10.216;2024-03-06T07:33:28;8.47;;;5.20;;
13571;SDS011;6857;53.484;10.216;2024-03-06T07:35:56;7.50;;;5.07;;
13571;SDS011;6857;53.484;10.216;2024-03-06T07:38:21;6.70;;;4.87;;
13571;SDS011;6857;53.484;10.216;2024-03-06T07:40:48;7.50;;;5.00;;
13571;SDS011;6857;53.484;10.216;2024-03-06T07:43:13;8.43;;;5.23;;
13571;SDS011;6857;53.484;10.216;2024-03-06T07:45:39;5.20;;;4.40;;
13571;SDS011;6857;53.484;10.216;2024-03-06T07:48:05;5.77;;;4.33;;
13571;SDS011;6857;53.484;10.216;2024-03-06T07:50:30;8.47;;;4.73;;
13571;SDS011;6857;53.484;10.216;2024-03-06T07:52:56;6.27;;;5.07;;
13571;SDS011;6857;53.484;10.216;2024-03-06T07:55:21;8.47;;;5.33;;
13571;SDS011;6857;53.484;10.216;2024-03-06T07:57:47;8.00;;;5.73;;
13571;SDS011;6857;53.484;10.216;2024-03-06T08:00:13;8.53;;;5.70;;
13571;SDS011;6857;53.484;10.216;2024-03-06T08:02:42;9.30;;;5.97;;
13571;SDS011;6857;53.484;10.216;2024-03-06T08:05:11;8.27;;;5.80;;
13571;SDS011;6857;53.484;10.216;2024-03-06T08:07:40;8.40;;;5.90;;
13571;SDS011;6857;53.484;10.216;2024-03-06T08:10:07;11.17;;;6.40;;
13571;SDS011;6857;53.484;10.216;2024-03-06T08:12:38;7.30;;;5.60;;
13571;SDS011;6857;53.484;10.216;2024-03-06T08:15:07;12.07;;;5.83;;
13571;SDS011;6857;53.484;10.216;2024-03-06T08:17:36;8.43;;;5.63;;
13571;SDS011;6857;53.484;10.216;2024-03-06T08:20:02;8.20;;;5.77;;
13571;SDS011;6857;53.484;10.216;2024-03-06T08:22:32;7.37;;;6.17;;
13571;SDS011;6857;53.484;10.216;2024-03-06T08:25:03;7.87;;;5.87;;
13571;SDS011;6857;53.484;10.216;2024-03-06T08:27:41;9.07;;;6.03;;
13571;SDS011;6857;53.484;10.216;2024-03-06T08:30:07;9.53;;;6.57;;
13571;SDS011;6857;53.484;10.216;2024-03-06T08:32:34;7.77;;;6.03;;
13571;SDS011;6857;53.484;10.216;2024-03-06T08:35:10;9.07;;;6.43;;
13571;SDS011;6857;53.484;10.216;2024-03-06T08:37:38;10.20;;;5.90;;
13571;SDS011;6857;53.484;10.216;2024-03-06T08:40:04;8.70;;;5.90;;
13571;SDS011;6857;53.484;10.216;2024-03-06T08:42:35;10.80;;;6.50;;
13571;SDS011;6857;53.484;10.216;2024-03-06T08:45:01;10.67;;;6.90;;
13571;SDS011;6857;53.484;10.216;2024-03-06T08:47:27;8.50;;;5.97;;
13571;SDS011;6857;53.484;10.216;2024-03-06T08:49:53;9.20;;;6.50;;
13571;SDS011;6857;53.484;10.216;2024-03-06T08:52:19;9.00;;;6.43;;
13571;SDS011;6857;53.484;10.216;2024-03-06T08:54:45;10.07;;;5.87;;
13571;SDS011;6857;53.484;10.216;2024-03-06T08:57:11;8.87;;;6.90;;
13571;SDS011;6857;53.484;10.216;2024-03-06T08:59:37;10.33;;;6.97;;
13571;SDS011;6857;53.484;10.216;2024-03-06T09:02:16;8.30;;;5.97;;
13571;SDS011;6857;53.484;10.216;2024-03-06T09:04:44;9.50;;;6.43;;
13571;SDS011;6857;53.484;10.216;2024-03-06T09:07:10;8.47;;;6.40;;
13571;SDS011;6857;53.484;10.216;2024-03-06T09:09:36;9.70;;;6.70;;
13571;SDS011;6857;53.484;10.216;2024-03-06T09:12:03;8.27;;;6.60;;
13571;SDS011;6857;53.484;10.216;2024-03-06T09:14:35;11.17;;;6.80;;
13571;SDS011;6857;53.484;10.216;2024-03-06T09:17:01;8.87;;;6.40;;
13571;SDS011;6857;53.484;10.216;2024-03-06T09:19:28;8.10;;;6.23;;
13571;SDS011;6857;53.484;10.216;2024-03-06T09:21:54;10.70;;;6.80;;
13571;SDS011;6857;53.484;10.216;2024-03-06T09:24:20;12.37;;;6.80;;
13571;SDS011;6857;53.484;10.216;2024-03-06T09:26:48;8.93;;;6.63;;
13571;SDS011;6857;53.484;10.216;2024-03-06T09:29:14;9.57;;;6.80;;
13571;SDS011;6857;53.484;10.216;2024-03-06T09:31:40;11.10;;;7.20;;
13571;SDS011;6857;53.484;10.216;2024-03-06T09:34:06;9.47;;;6.90;;
13571;SDS011;6857;53.484;10.216;2024-03-06T09:36:32;11.00;;;7.23;;
13571;SDS011;6857;53.484;10.216;2024-03-06T09:38:58;11.33;;;7.80;;
13571;SDS011;6857;53.484;10.216;2024-03-06T09:41:24;11.93;;;7.70;;
13571;SDS011;6857;53.484;10.216;2024-03-06T09:43:50;14.50;;;8.93;;
13571;SDS011;6857;53.484;10.216;2024-03-06T09:46:15;15.43;;;8.03;;
13571;SDS011;6857;53.484;10.216;2024-03-06T09:48:46;12.67;;;8.70;;
13571;SDS011;6857;53.484;10.216;2024-03-06T09:51:12;12.27;;;7.63;;
13571;SDS011;6857;53.484;10.216;2024-03-06T09:53:39;11.37;;;7.70;;
13571;SDS011;6857;53.484;10.216;2024-03-06T09:56:05;11.73;;;7.70;;
13571;SDS011;6857;53.484;10.216;2024-03-06T09:58:37;12.33;;;7.80;;
13571;SDS011;6857;53.484;10.216;2024-03-06T10:01:02;11.80;;;8.57;;
13571;SDS011;6857;53.484;10.216;2024-03-06T10:03:32;10.80;;;7.83;;
13571;SDS011;6857;53.484;10.216;2024-03-06T10:05:58;10.10;;;7.77;;
13571;SDS011;6857;53.484;10.216;2024-03-06T10:08:23;10.43;;;7.57;;
13571;SDS011;6857;53.484;10.216;2024-03-06T10:10:51;10.33;;;7.50;;
13571;SDS011;6857;53.484;10.216;2024-03-06T10:13:17;10.30;;;7.33;;
13571;SDS011;6857;53.484;10.216;2024-03-06T10:15:59;12.63;;;8.03;;
13571;SDS011;6857;53.484;10.216;2024-03-06T10:18:29;11.93;;;8.70;;
13571;SDS011;6857;53.484;10.216;2024-03-06T10:20:57;13.30;;;8.50;;
13571;SDS011;6857;53.484;10.216;2024-03-06T10:23:23;13.77;;;7.67;;
13571;SDS011;6857;53.484;10.216;2024-03-06T10:25:49;14.47;;;7.63;;
13571;SDS011;6857;53.484;10.216;2024-03-06T10:28:17;10.03;;;7.30;;
13571;SDS011;6857;53.484;10.216;2024-03-06T10:30:44;12.23;;;6.90;;
13571;SDS011;6857;53.484;10.216;2024-03-06T10:33:14;12.30;;;7.30;;
13571;SDS011;6857;53.484;10.216;2024-03-06T10:35:41;12.20;;;7.67;;
13571;SDS011;6857;53.484;10.216;2024-03-06T10:38:11;11.20;;;7.50;;
13571;SDS011;6857;53.484;10.216;2024-03-06T10:40:38;12.23;;;7.70;;
13571;SDS011;6857;53.484;10.216;2024-03-06T10:43:05;9.57;;;6.97;;
13571;SDS011;6857;53.484;10.216;2024-03-06T10:45:46;10.90;;;7.50;;
13571;SDS011;6857;53.484;10.216;2024-03-06T10:48:14;10.10;;;7.37;;
13571;SDS011;6857;53.484;10.216;2024-03-06T10:50:40;10.43;;;7.43;;
13571;SDS011;6857;53.484;10.216;2024-03-06T10:53:11;11.53;;;8.17;;
13571;SDS011;6857;53.484;10.216;2024-03-06T10:55:38;11.87;;;7.87;;
13571;SDS011;6857;53.484;10.216;2024-03-06T10:58:07;8.07;;;6.50;;
13571;SDS011;6857;53.484;10.216;2024-03-06T11:00:40;12.43;;;7.93;;
13571;SDS011;6857;53.484;10.216;2024-03-06T11:03:07;9.33;;;6.33;;
13571;SDS011;6857;53.484;10.216;2024-03-06T11:05:39;9.60;;;6.87;;
13571;SDS011;6857;53.484;10.216;2024-03-06T11:08:08;9.57;;;7.00;;
13571;SDS011;6857;53.484;10.216;2024-03-06T11:10:36;13.57;;;7.70;;
13571;SDS011;6857;53.484;10.216;2024-03-06T11:13:03;11.67;;;7.73;;
13571;SDS011;6857;53.484;10.216;2024-03-06T11:15:33;9.83;;;7.30;;
13571;SDS011;6857;53.484;10.216;2024-03-06T11:18:20;9.27;;;7.13;;
13571;SDS011;6857;53.484;10.216;2024-03-06T11:23:31;11.60;;;7.97;;
13571;SDS011;6857;53.484;10.216;2024-03-06T11:26:01;9.93;;;7.20;;
13571;SDS011;6857;53.484;10.216;2024-03-06T11:28:29;12.40;;;8.60;;
13571;SDS011;6857;53.484;10.216;2024-03-06T11:41:29;10.33;;;8.00;;
13571;SDS011;6857;53.484;10.216;2024-03-06T11:43:56;12.07;;;7.97;;
13571;SDS011;6857;53.484;10.216;2024-03-06T11:46:45;11.57;;;7.27;;
13571;SDS011;6857;53.484;10.216;2024-03-06T11:49:30;10.30;;;7.37;;
13571;SDS011;6857;53.484;10.216;2024-03-06T11:52:01;10.80;;;7.63;;
13571;SDS011;6857;53.484;10.216;2024-03-06T11:54:33;10.90;;;7.40;;
13571;SDS011;6857;53.484;10.216;2024-03-06T11:56:59;11.87;;;8.30;;
13571;SDS011;6857;53.484;10.216;2024-03-06T11:59:26;11.73;;;7.30;;
13571;SDS011;6857;53.484;10.216;2024-03-06T12:01:53;10.27;;;6.77;;
13571;SDS011;6857;53.484;10.216;2024-03-06T12:04:20;8.87;;;6.83;;
13571;SDS011;6857;53.484;10.216;2024-03-06T12:06:47;10.40;;;7.43;;
13571;SDS011;6857;53.484;10.216;2024-03-06T12:09:13;9.33;;;6.70;;
13571;SDS011;6857;53.484;10.216;2024-03-06T12:11:40;10.63;;;6.43;;
13571;SDS011;6857;53.484;10.216;2024-03-06T12:14:08;8.00;;;6.73;;
13571;SDS011;6857;53.484;10.216;2024-03-06T12:16:39;9.73;;;6.83;;
13571;SDS011;6857;53.484;10.216;2024-03-06T12:19:05;11.93;;;7.27;;
13571;SDS011;6857;53.484;10.216;2024-03-06T12:21:31;10.63;;;7.07;;
13571;SDS011;6857;53.484;10.216;2024-03-06T12:24:07;11.33;;;7.00;;
13571;SDS011;6857;53.484;10.216;2024-03-06T12:26:34;12.23;;;6.70;;
13571;SDS011;6857;53.484;10.216;2024-03-06T12:31:36;10.13;;;6.73;;
13571;SDS011;6857;53.484;10.216;2024-03-06T12:34:03;11.90;;;7.83;;
13571;SDS011;6857;53.484;10.216;2024-03-06T12:36:29;12.07;;;7.50;;
13571;SDS011;6857;53.484;10.216;2024-03-06T12:38:56;9.33;;;6.50;;
13571;SDS011;6857;53.484;10.216;2024-03-06T12:41:23;9.83;;;6.90;;
13571;SDS011;6857;53.484;10.216;2024-03-06T12:43:51;12.90;;;7.20;;
13571;SDS011;6857;53.484;10.216;2024-03-06T12:46:17;9.63;;;7.30;;
13571;SDS011;6857;53.484;10.216;2024-03-06T12:48:43;11.37;;;7.17;;
13571;SDS011;6857;53.484;10.216;2024-03-06T12:51:09;9.43;;;6.93;;
13571;SDS011;6857;53.484;10.216;2024-03-06T12:53:35;10.13;;;6.70;;
13571;SDS011;6857;53.484;10.216;2024-03-06T12:56:01;9.13;;;7.13;;
13571;SDS011;6857;53.484;10.216;2024-03-06T12:58:26;8.77;;;6.57;;
13571;SDS011;6857;53.484;10.216;2024-03-06T13:00:52;8.50;;;6.23;;
13571;SDS011;6857;53.484;10.216;2024-03-06T13:03:19;10.33;;;7.03;;
13571;SDS011;6857;53.484;10.216;2024-03-06T13:05:45;8.50;;;6.50;;
13571;SDS011;6857;53.484;10.216;2024-03-06T13:08:11;9.37;;;6.93;;
13571;SDS011;6857;53.484;10.216;2024-03-06T13:10:39;8.70;;;6.77;;
13571;SDS011;6857;53.484;10.216;2024-03-06T13:13:05;12.07;;;6.70;;
13571;SDS011;6857;53.484;10.216;2024-03-06T13:15:31;10.23;;;6.37;;
13571;SDS011;6857;53.484;10.216;2024-03-06T13:17:59;9.93;;;6.77;;
13571;SDS011;6857;53.484;10.216;2024-03-06T13:20:25;9.43;;;6.73;;
13571;SDS011;6857;53.484;10.216;2024-03-06T13:22:51;9.10;;;6.57;;
13571;SDS011;6857;53.484;10.216;2024-03-06T13:25:16;11.73;;;6.80;;
13571;SDS011;6857;53.484;10.216;2024-03-06T13:27:42;10.90;;;6.90;;
13571;SDS011;6857;53.484;10.216;2024-03-06T13:30:07;10.97;;;7.40;;
13571;SDS011;6857;53.484;10.216;2024-03-06T13:32:33;8.60;;;6.37;;
13571;SDS011;6857;53.484;10.216;2024-03-06T13:34:59;9.53;;;6.00;;
13571;SDS011;6857;53.484;10.216;2024-03-06T13:37:24;8.17;;;6.20;;
13571;SDS011;6857;53.484;10.216;2024-03-06T13:39:50;9.87;;;6.00;;
13571;SDS011;6857;53.484;10.216;2024-03-06T13:42:17;10.93;;;6.77;;
13571;SDS011;6857;53.484;10.216;2024-03-06T13:44:44;9.60;;;6.23;;
13571;SDS011;6857;53.484;10.216;2024-03-06T13:47:14;8.40;;;6.17;;
13571;SDS011;6857;53.484;10.216;2024-03-06T13:49:41;8.63;;;6.27;;
13571;SDS011;6857;53.484;10.216;2024-03-06T13:52:07;8.63;;;6.83;;
13571;SDS011;6857;53.484;10.216;2024-03-06T13:54:41;8.07;;;6.33;;
13571;SDS011;6857;53.484;10.216;2024-03-06T13:57:08;7.77;;;5.67;;
13571;SDS011;6857;53.484;10.216;2024-03-06T13:59:34;8.00;;;5.97;;
13571;SDS011;6857;53.484;10.216;2024-03-06T14:02:00;10.93;;;6.77;;
13571;SDS011;6857;53.484;10.216;2024-03-06T14:04:27;7.87;;;6.00;;
13571;SDS011;6857;53.484;10.216;2024-03-06T14:06:53;8.53;;;6.47;;
13571;SDS011;6857;53.484;10.216;2024-03-06T14:09:19;9.33;;;6.80;;
13571;SDS011;6857;53.484;10.216;2024-03-06T14:11:45;8.10;;;5.90;;
13571;SDS011;6857;53.484;10.216;2024-03-06T14:14:10;7.97;;;5.60;;
13571;SDS011;6857;53.484;10.216;2024-03-06T14:16:36;7.97;;;5.63;;
13571;SDS011;6857;53.484;10.216;2024-03-06T14:19:04;8.07;;;5.90;;
13571;SDS011;6857;53.484;10.216;2024-03-06T14:21:31;10.13;;;6.13;;
13571;SDS011;6857;53.484;10.216;2024-03-06T14:24:00;7.20;;;5.33;;
13571;SDS011;6857;53.484;10.216;2024-03-06T14:26:30;6.80;;;5.50;;
13571;SDS011;6857;53.484;10.216;2024-03-06T14:28:57;7.23;;;5.20;;
13571;SDS011;6857;53.484;10.216;2024-03-06T14:31:23;7.90;;;5.57;;
13571;SDS011;6857;53.484;10.216;2024-03-06T14:33:49;8.80;;;5.87;;
13571;SDS011;6857;53.484;10.216;2024-03-06T14:36:15;8.20;;;5.73;;
13571;SDS011;6857;53.484;10.216;2024-03-06T14:38:41;7.80;;;5.50;;
13571;SDS011;6857;53.484;10.216;2024-03-06T14:41:07;9.60;;;6.00;;
13571;SDS011;6857;53.484;10.216;2024-03-06T14:43:34;9.47;;;5.80;;
13571;SDS011;6857;53.484;10.216;2024-03-06T14:46:00;7.90;;;5.77;;
13571;SDS011;6857;53.484;10.216;2024-03-06T14:48:26;12.33;;;6.63;;
13571;SDS011;6857;53.484;10.216;2024-03-06T14:50:52;7.23;;;5.50;;
13571;SDS011;6857;53.484;10.216;2024-03-06T14:53:17;7.03;;;5.37;;
13571;SDS011;6857;53.484;10.216;2024-03-06T14:55:43;8.53;;;5.50;;